Time;durP1;ratioP1;P1;durP2;ratioP2;P2;SDS_P1;SDS_P2;PMS_P1;PMS_P2;Temp;Humidity;BMP_temperature;BMP_pressure;BME280_temperature;BME280_humidity;BME280_pressure;Samples;Min_cycle;Max_cycle;Signal;HPM_P1;HPM_P2
2020/12/05 00:01:00;;;;;;;23.00;15.50;;;;;;;;;;5087886;28;20050;-62
2020/12/05 00:03:25;;;;;;;24.57;16.30;;;;;;;;;;5091421;28;20020;-62
2020/12/05 00:05:50;;;;;;;22.17;14.70;;;;;;;;;;5091565;28;20027;-61
2020/12/05 00:08:15;;;;;;;21.30;15.63;;;;;;;;;;5088456;28;20012;-63
2020/12/05 00:10:42;;;;;;;22.87;15.80;;;;;;;;;;5091957;28;20077;-63
2020/12/05 00:13:07;;;;;;;22.27;13.93;;;;;;;;;;5092256;28;20020;-62
2020/12/05 00:15:32;;;;;;;21.93;14.97;;;;;;;;;;5091610;28;20485;-62
2020/12/05 00:17:57;;;;;;;20.63;13.73;;;;;;;;;;5089376;28;20051;-62
2020/12/05 00:20:22;;;;;;;20.13;13.60;;;;;;;;;;5089895;28;20024;-62
2020/12/05 00:22:48;;;;;;;19.73;13.00;;;;;;;;;;5091675;28;20052;-62
2020/12/05 00:25:13;;;;;;;22.80;13.33;;;;;;;;;;5091355;28;20020;-62
2020/12/05 00:27:38;;;;;;;20.63;13.70;;;;;;;;;;5091665;28;20020;-63
2020/12/05 00:30:03;;;;;;;22.03;14.87;;;;;;;;;;5087282;28;20094;-62
2020/12/05 00:32:29;;;;;;;21.33;14.33;;;;;;;;;;5084225;28;20020;-63
2020/12/05 00:34:54;;;;;;;20.87;13.67;;;;;;;;;;5085943;28;20416;-62
2020/12/05 00:37:19;;;;;;;23.43;15.23;;;;;;;;;;5090351;28;20474;-62
2020/12/05 00:39:45;;;;;;;21.77;13.67;;;;;;;;;;5087381;28;20030;-62
2020/12/05 00:42:10;;;;;;;20.77;14.10;;;;;;;;;;5091646;28;20141;-63
2020/12/05 00:44:35;;;;;;;20.80;13.87;;;;;;;;;;5091614;28;20016;-63
2020/12/05 00:47:00;;;;;;;21.20;14.90;;;;;;;;;;5092701;28;20145;-62
2020/12/05 00:49:25;;;;;;;20.50;13.23;;;;;;;;;;5092328;28;20467;-62
2020/12/05 00:51:51;;;;;;;20.00;13.47;;;;;;;;;;5095693;28;20016;-61
2020/12/05 00:54:16;;;;;;;20.00;13.27;;;;;;;;;;5094752;28;20038;-62
2020/12/05 00:56:41;;;;;;;20.53;13.30;;;;;;;;;;5095505;28;20047;-62
2020/12/05 00:59:07;;;;;;;21.60;13.73;;;;;;;;;;5089519;28;20087;-62
2020/12/05 01:01:32;;;;;;;20.00;12.33;;;;;;;;;;5095422;28;20044;-62
2020/12/05 01:03:57;;;;;;;19.23;12.53;;;;;;;;;;5094865;28;20016;-63
2020/12/05 01:06:22;;;;;;;20.40;13.03;;;;;;;;;;5095173;28;20020;-62
2020/12/05 01:08:48;;;;;;;20.00;13.77;;;;;;;;;;5091910;28;20115;-62
2020/12/05 01:11:19;;;;;;;19.63;12.67;;;;;;;;;;5095364;28;20016;-62
2020/12/05 01:13:45;;;;;;;23.00;13.33;;;;;;;;;;5094977;28;20483;-64
2020/12/05 01:16:14;;;;;;;18.77;12.03;;;;;;;;;;5094749;28;20054;-63
2020/12/05 01:18:39;;;;;;;18.77;12.60;;;;;;;;;;5088898;28;20028;-63
2020/12/05 01:21:14;;;;;;;17.97;12.07;;;;;;;;;;5093936;28;20516;-63
2020/12/05 01:23:40;;;;;;;14.38;9.35;;;;;;;;;;5094465;28;20391;-63
2020/12/05 01:26:05;;;;;;;18.97;14.07;;;;;;;;;;5094112;28;20027;-63
2020/12/05 01:28:31;;;;;;;19.83;13.57;;;;;;;;;;5091027;28;20312;-63
2020/12/05 01:30:56;;;;;;;22.63;13.17;;;;;;;;;;5086014;28;20020;-63
2020/12/05 01:33:22;;;;;;;20.60;16.03;;;;;;;;;;5095099;28;20008;-62
2020/12/05 01:35:47;;;;;;;19.20;13.13;;;;;;;;;;5091629;28;20119;-63
2020/12/05 01:38:12;;;;;;;20.93;13.00;;;;;;;;;;5088949;28;20027;-63
2020/12/05 01:40:37;;;;;;;19.13;14.37;;;;;;;;;;5095036;28;20049;-63
2020/12/05 01:43:03;;;;;;;19.40;13.53;;;;;;;;;;5094256;28;20386;-64
2020/12/05 01:45:28;;;;;;;19.17;12.97;;;;;;;;;;5094766;28;20386;-63
2020/12/05 01:47:53;;;;;;;19.13;13.20;;;;;;;;;;5093580;28;20020;-62
2020/12/05 01:50:19;;;;;;;18.67;11.43;;;;;;;;;;5092752;28;20086;-63
2020/12/05 01:52:44;;;;;;;17.83;11.57;;;;;;;;;;5094121;28;20008;-64
2020/12/05 01:55:09;;;;;;;17.53;11.97;;;;;;;;;;5092470;28;20398;-62
2020/12/05 01:57:34;;;;;;;17.27;12.17;;;;;;;;;;5093678;28;20024;-63
2020/12/05 02:00:00;;;;;;;20.50;14.70;;;;;;;;;;5091335;28;20023;-63
2020/12/05 02:02:25;;;;;;;20.87;12.40;;;;;;;;;;5094420;28;20016;-63
2020/12/05 02:04:56;;;;;;;19.80;13.50;;;;;;;;;;5093873;28;20027;-62
2020/12/05 02:07:25;;;;;;;18.47;12.77;;;;;;;;;;5093534;28;20020;-63
2020/12/05 02:09:52;;;;;;;18.20;12.17;;;;;;;;;;5090702;28;20032;-62
2020/12/05 02:12:27;;;;;;;18.70;12.23;;;;;;;;;;5094669;28;20368;-53
2020/12/05 02:14:58;;;;;;;18.73;12.67;;;;;;;;;;5093672;28;20385;-55
2020/12/05 02:17:24;;;;;;;18.80;11.80;;;;;;;;;;5093309;28;20030;-53
2020/12/05 02:19:52;;;;;;;16.13;11.17;;;;;;;;;;5091134;28;20235;-54
2020/12/05 02:22:26;;;;;;;15.43;9.73;;;;;;;;;;5093482;28;20075;-54
2020/12/05 02:24:52;;;;;;;15.90;11.33;;;;;;;;;;5079620;28;20073;-51
2020/12/05 02:27:17;;;;;;;17.27;12.47;;;;;;;;;;5093373;28;20051;-56
2020/12/05 02:29:42;;;;;;;17.47;12.30;;;;;;;;;;5086990;28;20028;-52
2020/12/05 02:32:08;;;;;;;17.50;12.27;;;;;;;;;;5089469;28;20023;-55
2020/12/05 02:34:33;;;;;;;16.03;12.43;;;;;;;;;;5090477;28;20029;-53
2020/12/05 02:37:02;;;;;;;18.07;11.50;;;;;;;;;;5088323;28;20082;-51
2020/12/05 02:39:28;;;;;;;17.80;11.63;;;;;;;;;;5090503;28;20085;-53
2020/12/05 02:41:53;;;;;;;18.40;13.33;;;;;;;;;;5093287;28;20020;-53
2020/12/05 02:44:19;;;;;;;17.80;12.07;;;;;;;;;;5093456;28;20375;-55
2020/12/05 02:46:46;;;;;;;18.53;11.67;;;;;;;;;;5092552;28;20031;-56
2020/12/05 02:49:12;;;;;;;15.60;11.43;;;;;;;;;;5090347;28;20024;-52
2020/12/05 02:51:40;;;;;;;17.80;12.13;;;;;;;;;;5093183;28;20073;-51
2020/12/05 02:54:05;;;;;;;17.67;12.23;;;;;;;;;;5092357;28;20020;-53
2020/12/05 02:56:31;;;;;;;17.33;12.83;;;;;;;;;;5092860;28;20028;-56
2020/12/05 02:58:56;;;;;;;16.77;10.83;;;;;;;;;;5089280;28;20020;-56
2020/12/05 03:01:21;;;;;;;16.00;11.43;;;;;;;;;;5093208;28;20463;-53
2020/12/05 03:03:46;;;;;;;18.37;13.50;;;;;;;;;;5093121;28;20042;-53
2020/12/05 03:06:11;;;;;;;16.80;11.60;;;;;;;;;;5092137;28;20031;-53
2020/12/05 03:08:37;;;;;;;15.97;11.13;;;;;;;;;;5089711;28;20039;-53
2020/12/05 03:11:02;;;;;;;18.50;13.23;;;;;;;;;;5092538;28;20073;-55
2020/12/05 03:13:27;;;;;;;17.67;13.27;;;;;;;;;;5092789;28;20016;-52
2020/12/05 03:15:52;;;;;;;16.73;10.50;;;;;;;;;;5092131;28;20110;-55
2020/12/05 03:18:18;;;;;;;17.70;11.93;;;;;;;;;;5089224;28;20028;-51
2020/12/05 03:20:43;;;;;;;15.87;11.90;;;;;;;;;;5092818;28;20077;-56
2020/12/05 03:23:09;;;;;;;16.07;11.00;;;;;;;;;;5091865;28;20347;-56
2020/12/05 03:25:34;;;;;;;16.50;12.53;;;;;;;;;;5092121;28;20103;-53
2020/12/05 03:27:59;;;;;;;15.13;10.87;;;;;;;;;;5090649;28;20359;-55
2020/12/05 03:30:24;;;;;;;18.20;12.10;;;;;;;;;;5090807;28;20103;-53
2020/12/05 03:32:50;;;;;;;16.07;10.90;;;;;;;;;;5084442;28;20026;-53
2020/12/05 03:35:15;;;;;;;16.53;11.13;;;;;;;;;;5092841;28;20015;-55
2020/12/05 03:37:40;;;;;;;17.03;10.63;;;;;;;;;;5089067;28;20071;-54
2020/12/05 03:40:06;;;;;;;15.20;12.83;;;;;;;;;;5089028;28;20016;-54
2020/12/05 03:42:31;;;;;;;16.23;10.27;;;;;;;;;;5092157;28;20028;-52
2020/12/05 03:44:56;;;;;;;16.07;10.03;;;;;;;;;;5092445;28;20020;-52
2020/12/05 03:47:21;;;;;;;17.80;13.23;;;;;;;;;;5091944;28;20016;-56
2020/12/05 03:49:47;;;;;;;14.40;10.33;;;;;;;;;;5089412;28;20153;-49
2020/12/05 03:52:12;;;;;;;14.70;10.03;;;;;;;;;;5091845;28;20024;-53
2020/12/05 03:54:37;;;;;;;16.57;9.13;;;;;;;;;;5092290;28;20023;-53
2020/12/05 03:57:02;;;;;;;13.47;10.13;;;;;;;;;;5091550;28;20109;-55
2020/12/05 03:59:28;;;;;;;15.17;10.93;;;;;;;;;;5089155;28;20027;-56
2020/12/05 04:01:53;;;;;;;15.73;11.60;;;;;;;;;;5091714;28;20027;-55
2020/12/05 04:04:18;;;;;;;16.03;10.77;;;;;;;;;;5092351;28;20024;-54
2020/12/05 04:06:43;;;;;;;15.60;9.97;;;;;;;;;;5091665;28;20454;-53
2020/12/05 04:09:09;;;;;;;14.97;9.73;;;;;;;;;;5088659;28;20327;-52
2020/12/05 04:11:38;;;;;;;15.00;11.40;;;;;;;;;;5090958;28;20020;-54
2020/12/05 04:14:03;;;;;;;14.83;10.53;;;;;;;;;;5083050;28;20028;-53
2020/12/05 04:16:28;;;;;;;14.03;10.90;;;;;;;;;;5090004;28;20070;-55
2020/12/05 04:18:53;;;;;;;14.23;9.93;;;;;;;;;;5088156;28;20081;-54
2020/12/05 04:21:19;;;;;;;16.93;11.40;;;;;;;;;;5092097;28;20093;-53
2020/12/05 04:23:44;;;;;;;15.73;10.90;;;;;;;;;;5095525;28;20415;-55
2020/12/05 04:26:09;;;;;;;18.47;10.43;;;;;;;;;;5095470;28;20027;-54
2020/12/05 04:28:34;;;;;;;15.43;10.23;;;;;;;;;;5092321;28;20101;-54
2020/12/05 04:31:00;;;;;;;14.77;9.50;;;;;;;;;;5086736;28;20024;-51
2020/12/05 04:33:25;;;;;;;14.33;9.53;;;;;;;;;;5093737;28;20043;-55
2020/12/05 04:35:50;;;;;;;14.67;9.37;;;;;;;;;;5095682;28;20471;-51
2020/12/05 04:38:15;;;;;;;14.67;9.67;;;;;;;;;;5092644;28;20111;-55
2020/12/05 04:40:40;;;;;;;12.83;10.10;;;;;;;;;;5095638;28;20099;-53
2020/12/05 04:43:06;;;;;;;12.77;9.47;;;;;;;;;;5095893;28;20016;-53
2020/12/05 04:45:31;;;;;;;12.70;9.03;;;;;;;;;;5095558;28;20020;-57
2020/12/05 04:47:57;;;;;;;15.83;10.30;;;;;;;;;;5094362;28;20012;-55
2020/12/05 04:50:23;;;;;;;14.17;9.53;;;;;;;;;;5093884;28;20016;-51
2020/12/05 04:52:50;;;;;;;14.63;11.10;;;;;;;;;;5095475;28;20017;-51
2020/12/05 04:55:16;;;;;;;13.80;10.03;;;;;;;;;;5095812;28;20020;-56
2020/12/05 04:57:44;;;;;;;14.37;10.37;;;;;;;;;;5095250;28;20020;-53
2020/12/05 05:00:10;;;;;;;14.07;9.77;;;;;;;;;;5087583;28;20048;-55
2020/12/05 05:02:39;;;;;;;11.27;8.07;;;;;;;;;;5092862;28;20062;-55
2020/12/05 05:05:04;;;;;;;12.33;9.23;;;;;;;;;;5089767;28;20028;-54
2020/12/05 05:07:31;;;;;;;12.43;9.30;;;;;;;;;;5094742;28;20375;-55
2020/12/05 05:10:08;;;;;;;11.17;8.90;;;;;;;;;;5092230;28;20015;-55
2020/12/05 05:12:35;;;;;;;11.50;7.60;;;;;;;;;;5092929;28;20016;-54
2020/12/05 05:15:01;;;;;;;9.87;7.40;;;;;;;;;;5095042;28;20390;-53
2020/12/05 05:17:26;;;;;;;10.33;7.50;;;;;;;;;;5095262;28;20019;-54
2020/12/05 05:19:51;;;;;;;9.93;7.20;;;;;;;;;;5091989;28;20527;-53
2020/12/05 05:22:20;;;;;;;10.43;6.90;;;;;;;;;;5094908;28;20052;-54
2020/12/05 05:25:05;;;;;;;10.15;7.43;;;;;;;;;;5094905;28;20104;-53
2020/12/05 05:27:30;;;;;;;9.45;6.47;;;;;;;;;;5094664;28;20107;-55
2020/12/05 05:30:10;;;;;;;10.55;7.80;;;;;;;;;;5090740;28;20147;-53
2020/12/05 05:32:47;;;;;;;8.80;5.85;;;;;;;;;;5086518;28;20051;-56
2020/12/05 05:35:13;;;;;;;9.15;6.57;;;;;;;;;;5094081;28;20362;-52
2020/12/05 05:37:42;;;;;;;10.65;8.18;;;;;;;;;;5093371;28;20028;-56
2020/12/05 05:40:09;;;;;;;11.43;7.40;;;;;;;;;;5087384;28;20027;-56
2020/12/05 05:42:36;;;;;;;11.90;8.10;;;;;;;;;;5095019;28;20034;-55
2020/12/05 05:45:17;;;;;;;9.27;7.20;;;;;;;;;;5094539;28;20373;-52
2020/12/05 05:47:43;;;;;;;9.68;7.20;;;;;;;;;;5093930;28;20121;-56
2020/12/05 05:50:18;;;;;;;9.38;8.20;;;;;;;;;;5091387;28;20043;-54
2020/12/05 05:52:43;;;;;;;8.80;6.50;;;;;;;;;;5082222;28;20419;-56
2020/12/05 05:55:09;;;;;;;10.07;6.88;;;;;;;;;;5092829;28;20153;-53
2020/12/05 05:57:34;;;;;;;10.20;7.57;;;;;;;;;;5094183;28;20091;-57
2020/12/05 06:00:00;;;;;;;11.23;7.20;;;;;;;;;;5089321;28;20467;-56
2020/12/05 06:02:26;;;;;;;10.10;7.07;;;;;;;;;;5094483;28;20020;-56
2020/12/05 06:04:51;;;;;;;10.70;7.13;;;;;;;;;;5094059;28;20165;-54
2020/12/05 06:07:18;;;;;;;11.90;8.27;;;;;;;;;;5093518;28;20865;-53
2020/12/05 06:09:46;;;;;;;10.13;8.68;;;;;;;;;;5090547;28;20023;-58
2020/12/05 06:12:12;;;;;;;10.32;8.40;;;;;;;;;;5093899;28;20024;-56
2020/12/05 06:14:41;;;;;;;11.85;9.05;;;;;;;;;;5091626;28;20027;-55
2020/12/05 06:17:07;;;;;;;11.63;8.00;;;;;;;;;;5084790;28;20024;-56
2020/12/05 06:19:32;;;;;;;13.75;8.15;;;;;;;;;;5090836;28;20437;-56
2020/12/05 06:21:58;;;;;;;8.82;6.20;;;;;;;;;;5090029;28;20131;-55
2020/12/05 06:24:33;;;;;;;8.82;6.22;;;;;;;;;;5093353;28;20028;-52
2020/12/05 06:27:00;;;;;;;9.20;6.22;;;;;;;;;;5092413;28;20047;-55
2020/12/05 06:29:26;;;;;;;6.78;5.22;;;;;;;;;;5084956;28;20024;-50
2020/12/05 06:31:51;;;;;;;8.70;5.50;;;;;;;;;;5091615;28;20081;-55
2020/12/05 06:34:42;;;;;;;7.55;5.65;;;;;;;;;;5090636;28;20455;-56
2020/12/05 06:37:09;;;;;;;6.90;5.40;;;;;;;;;;5089815;28;20043;-55
2020/12/05 06:39:34;;;;;;;7.15;4.53;;;;;;;;;;5089838;28;20493;-50
2020/12/05 06:41:59;;;;;;;6.78;4.63;;;;;;;;;;5092981;28;20020;-56
2020/12/05 06:44:34;;;;;;;7.78;5.25;;;;;;;;;;5092343;28;20035;-55
2020/12/05 06:47:02;;;;;;;7.57;4.90;;;;;;;;;;5093144;28;20024;-54
2020/12/05 06:49:39;;;;;;;7.70;5.03;;;;;;;;;;5090210;28;20146;-54
2020/12/05 06:52:23;;;;;;;8.80;6.03;;;;;;;;;;5092430;28;20098;-55
2020/12/05 06:54:49;;;;;;;8.48;6.50;;;;;;;;;;5092716;28;20016;-54
2020/12/05 06:57:14;;;;;;;10.88;7.20;;;;;;;;;;5092442;28;20019;-54
2020/12/05 06:59:39;;;;;;;13.32;8.25;;;;;;;;;;5089697;28;20248;-55
2020/12/05 07:02:24;;;;;;;10.82;7.28;;;;;;;;;;5085188;28;20020;-56
2020/12/05 07:04:50;;;;;;;11.98;8.02;;;;;;;;;;5091017;28;20031;-52
2020/12/05 07:07:30;;;;;;;15.68;10.65;;;;;;;;;;5091982;28;20024;-53
2020/12/05 07:09:55;;;;;;;17.38;11.05;;;;;;;;;;5084021;28;20026;-56
2020/12/05 07:12:21;;;;;;;15.73;10.50;;;;;;;;;;5092422;28;20103;-55
2020/12/05 07:14:46;;;;;;;17.48;11.85;;;;;;;;;;5093189;28;20336;-52
2020/12/05 07:17:19;;;;;;;15.20;11.18;;;;;;;;;;5090858;28;20024;-53
2020/12/05 07:19:44;;;;;;;20.20;11.73;;;;;;;;;;5081460;28;20024;-54
2020/12/05 07:22:10;;;;;;;18.93;12.53;;;;;;;;;;5092129;28;20091;-52
2020/12/05 07:24:35;;;;;;;15.93;10.57;;;;;;;;;;5092473;28;20490;-53
2020/12/05 07:27:00;;;;;;;17.47;11.50;;;;;;;;;;5092142;28;20024;-52
2020/12/05 07:29:25;;;;;;;18.13;12.30;;;;;;;;;;5089013;28;20020;-56
2020/12/05 07:31:50;;;;;;;18.00;12.33;;;;;;;;;;5092052;28;20497;-54
2020/12/05 07:34:19;;;;;;;17.50;11.97;;;;;;;;;;5093181;28;20107;-55
2020/12/05 07:36:45;;;;;;;17.43;12.17;;;;;;;;;;5092584;28;20031;-55
2020/12/05 07:39:10;;;;;;;19.63;12.57;;;;;;;;;;5088979;28;20020;-54
2020/12/05 07:41:35;;;;;;;18.83;13.23;;;;;;;;;;5092205;28;20023;-55
2020/12/05 07:44:00;;;;;;;20.27;13.83;;;;;;;;;;5092046;28;20089;-52
2020/12/05 07:46:28;;;;;;;21.23;13.53;;;;;;;;;;5092355;28;20024;-54
2020/12/05 07:48:53;;;;;;;19.33;13.80;;;;;;;;;;5075652;28;20082;-53
2020/12/05 07:51:18;;;;;;;19.43;11.97;;;;;;;;;;5092411;28;20012;-53
2020/12/05 07:53:45;;;;;;;19.03;12.07;;;;;;;;;;5091356;28;20026;-56
2020/12/05 07:56:11;;;;;;;18.93;12.23;;;;;;;;;;5091925;28;20032;-53
2020/12/05 07:58:42;;;;;;;24.70;13.80;;;;;;;;;;5088498;28;20544;-56
2020/12/05 08:01:07;;;;;;;19.63;12.67;;;;;;;;;;5090088;28;20023;-53
2020/12/05 08:03:39;;;;;;;20.57;13.73;;;;;;;;;;5089162;28;20383;-54
2020/12/05 08:06:18;;;;;;;20.60;14.43;;;;;;;;;;5084611;28;20012;-53
2020/12/05 08:08:47;;;;;;;20.97;14.20;;;;;;;;;;5088879;28;20517;-51
2020/12/05 08:11:12;;;;;;;22.10;13.10;;;;;;;;;;5092257;28;20020;-56
2020/12/05 08:13:38;;;;;;;24.20;15.40;;;;;;;;;;5089622;28;20076;-55
2020/12/05 08:16:04;;;;;;;20.17;12.93;;;;;;;;;;5089922;28;20062;-53
2020/12/05 08:18:31;;;;;;;17.77;12.30;;;;;;;;;;5083964;28;20124;-53
2020/12/05 08:20:56;;;;;;;17.93;13.23;;;;;;;;;;5091562;28;20080;-55
2020/12/05 08:23:21;;;;;;;19.10;12.73;;;;;;;;;;5090000;28;20139;-54
2020/12/05 08:25:47;;;;;;;19.63;12.90;;;;;;;;;;5091705;28;20102;-54
2020/12/05 08:28:13;;;;;;;21.30;14.33;;;;;;;;;;5081527;28;20105;-56
2020/12/05 08:30:38;;;;;;;22.70;14.17;;;;;;;;;;5083594;28;20058;-55
2020/12/05 08:33:04;;;;;;;22.67;14.47;;;;;;;;;;5083433;28;20024;-56
2020/12/05 08:35:30;;;;;;;25.73;16.37;;;;;;;;;;5086147;28;20031;-54
2020/12/05 08:37:59;;;;;;;24.20;15.17;;;;;;;;;;5075537;28;20056;-55
2020/12/05 08:40:24;;;;;;;19.00;13.50;;;;;;;;;;5088289;28;20028;-54
2020/12/05 08:42:49;;;;;;;20.40;13.47;;;;;;;;;;5091577;28;20028;-56
2020/12/05 08:45:15;;;;;;;21.50;13.57;;;;;;;;;;5091685;28;20020;-55
2020/12/05 08:47:45;;;;;;;18.77;12.27;;;;;;;;;;5086895;28;20032;-54
2020/12/05 08:50:21;;;;;;;21.57;14.07;;;;;;;;;;5088066;28;20684;-57
2020/12/05 08:52:51;;;;;;;21.00;13.95;;;;;;;;;;5088127;28;20027;-56
2020/12/05 08:55:20;;;;;;;22.60;14.63;;;;;;;;;;5078679;28;20023;-56
2020/12/05 08:57:51;;;;;;;22.83;14.70;;;;;;;;;;5091019;28;20095;-55
2020/12/05 09:00:19;;;;;;;18.43;13.83;;;;;;;;;;5083986;28;20020;-54
2020/12/05 09:02:44;;;;;;;18.93;12.87;;;;;;;;;;5091463;28;20025;-55
2020/12/05 09:05:09;;;;;;;18.50;13.47;;;;;;;;;;5082994;28;20016;-54
2020/12/05 09:07:34;;;;;;;18.57;12.90;;;;;;;;;;5091955;28;20027;-53
2020/12/05 09:09:59;;;;;;;18.00;12.30;;;;;;;;;;5091854;28;20030;-53
2020/12/05 09:12:31;;;;;;;18.75;12.57;;;;;;;;;;5084414;28;20020;-56
2020/12/05 09:15:05;;;;;;;15.65;11.68;;;;;;;;;;5088039;28;20012;-55
2020/12/05 09:17:34;;;;;;;16.77;11.50;;;;;;;;;;5091777;28;20613;-53
2020/12/05 09:20:13;;;;;;;18.52;12.52;;;;;;;;;;5081705;28;20505;-55
2020/12/05 09:22:39;;;;;;;17.98;12.45;;;;;;;;;;5091817;28;20460;-55
2020/12/05 09:25:05;;;;;;;16.17;11.45;;;;;;;;;;5088223;28;20538;-55
2020/12/05 09:27:41;;;;;;;16.35;10.27;;;;;;;;;;5090638;28;20107;-52
2020/12/05 09:30:10;;;;;;;18.10;12.02;;;;;;;;;;5089984;28;20023;-56
2020/12/05 09:32:38;;;;;;;18.45;11.98;;;;;;;;;;5094612;28;20016;-53
2020/12/05 09:35:04;;;;;;;11.73;5.28;;;;;;;;;;5093798;28;20486;-57
2020/12/05 09:37:29;;;;;;;18.48;12.50;;;;;;;;;;5092745;28;20020;-55
2020/12/05 09:39:55;;;;;;;14.38;9.18;;;;;;;;;;5091571;28;20464;-55
2020/12/05 09:42:23;;;;;;;17.27;12.02;;;;;;;;;;5094469;28;20019;-55
2020/12/05 09:44:49;;;;;;;17.75;12.60;;;;;;;;;;5094573;28;20031;-53
2020/12/05 09:47:14;;;;;;;18.25;12.02;;;;;;;;;;5094112;28;20020;-55
2020/12/05 09:49:40;;;;;;;21.15;12.45;;;;;;;;;;5088178;28;20028;-55
2020/12/05 09:52:05;;;;;;;19.70;13.75;;;;;;;;;;5094223;28;20023;-54
2020/12/05 09:54:30;;;;;;;17.27;12.15;;;;;;;;;;5085971;28;20042;-56
2020/12/05 09:56:55;;;;;;;20.10;14.07;;;;;;;;;;5093549;28;20036;-56
2020/12/05 09:59:20;;;;;;;19.17;13.63;;;;;;;;;;5091284;28;20028;-58
2020/12/05 10:01:46;;;;;;;17.85;12.30;;;;;;;;;;5094980;28;20020;-56
2020/12/05 10:04:14;;;;;;;17.30;11.15;;;;;;;;;;5094190;28;20024;-57
2020/12/05 10:06:39;;;;;;;14.80;10.55;;;;;;;;;;5093926;28;20466;-56
2020/12/05 10:09:04;;;;;;;12.75;8.98;;;;;;;;;;5090534;28;20020;-54
2020/12/05 10:11:29;;;;;;;13.88;9.93;;;;;;;;;;5093497;28;20012;-55
2020/12/05 10:13:55;;;;;;;14.20;9.63;;;;;;;;;;5093699;28;20024;-57
2020/12/05 10:16:20;;;;;;;18.77;9.98;;;;;;;;;;5093805;28;20030;-55
2020/12/05 10:18:45;;;;;;;12.45;9.38;;;;;;;;;;5090243;28;20020;-56
2020/12/05 10:21:13;;;;;;;14.73;9.63;;;;;;;;;;5080672;28;20463;-56
2020/12/05 10:23:38;;;;;;;12.70;9.05;;;;;;;;;;5088065;28;20146;-57
2020/12/05 10:26:07;;;;;;;8.88;5.38;;;;;;;;;;5086192;28;20065;-57
2020/12/05 10:28:32;;;;;;;12.48;8.48;;;;;;;;;;5086724;28;20526;-55
2020/12/05 10:30:58;;;;;;;14.82;9.52;;;;;;;;;;5093896;28;20031;-58
2020/12/05 10:33:23;;;;;;;13.07;9.35;;;;;;;;;;5092606;28;20350;-58
2020/12/05 10:35:48;;;;;;;16.95;11.02;;;;;;;;;;5093498;28;20012;-56
2020/12/05 10:38:13;;;;;;;12.50;8.05;;;;;;;;;;5078534;28;20265;-54
2020/12/05 10:40:39;;;;;;;14.23;10.15;;;;;;;;;;5087868;28;20044;-57
2020/12/05 10:43:05;;;;;;;14.73;9.93;;;;;;;;;;5092895;28;20455;-57
2020/12/05 10:45:30;;;;;;;11.93;8.30;;;;;;;;;;5093477;28;20016;-58
2020/12/05 10:47:58;;;;;;;12.63;8.70;;;;;;;;;;5091673;28;20387;-56
2020/12/05 10:50:23;;;;;;;12.07;9.57;;;;;;;;;;5091416;28;20012;-57
2020/12/05 10:52:48;;;;;;;12.52;8.70;;;;;;;;;;5090667;28;20069;-56
2020/12/05 10:55:13;;;;;;;11.10;7.25;;;;;;;;;;5091132;28;20111;-57
2020/12/05 10:57:39;;;;;;;12.43;8.77;;;;;;;;;;5091847;28;20026;-58
2020/12/05 11:00:04;;;;;;;7.38;4.32;;;;;;;;;;5089938;28;20016;-56
2020/12/05 11:02:31;;;;;;;11.52;9.55;;;;;;;;;;5088031;28;20023;-56
2020/12/05 11:04:56;;;;;;;13.85;10.25;;;;;;;;;;5090917;28;20032;-56
2020/12/05 11:07:22;;;;;;;13.68;9.50;;;;;;;;;;5092320;28;20073;-56
2020/12/05 11:09:47;;;;;;;11.77;8.55;;;;;;;;;;5084744;28;20073;-58
2020/12/05 11:12:13;;;;;;;11.63;8.45;;;;;;;;;;5090839;28;20102;-57
2020/12/05 11:14:38;;;;;;;15.07;9.70;;;;;;;;;;5091296;28;20366;-57
2020/12/05 11:17:04;;;;;;;8.57;5.32;;;;;;;;;;5090357;28;20020;-57
2020/12/05 11:19:33;;;;;;;13.15;8.93;;;;;;;;;;5089923;28;20031;-56
2020/12/05 11:21:59;;;;;;;12.90;8.23;;;;;;;;;;5091694;28;20036;-55
2020/12/05 11:24:25;;;;;;;13.38;9.02;;;;;;;;;;5092324;28;20098;-57
2020/12/05 11:26:50;;;;;;;12.88;8.88;;;;;;;;;;5092280;28;20120;-56
2020/12/05 11:29:17;;;;;;;13.95;9.82;;;;;;;;;;5087257;28;20016;-56
2020/12/05 11:31:43;;;;;;;12.73;9.27;;;;;;;;;;5089484;28;20474;-56
2020/12/05 11:34:08;;;;;;;13.93;9.80;;;;;;;;;;5083497;28;20099;-55
2020/12/05 11:36:33;;;;;;;11.75;8.88;;;;;;;;;;5085554;28;20111;-57
2020/12/05 11:38:58;;;;;;;13.00;8.80;;;;;;;;;;5088668;28;20020;-54
2020/12/05 11:41:24;;;;;;;14.43;9.68;;;;;;;;;;5089555;28;20125;-57
2020/12/05 11:43:49;;;;;;;10.77;8.27;;;;;;;;;;5091320;28;20406;-56
2020/12/05 11:46:15;;;;;;;12.77;8.10;;;;;;;;;;5091239;28;20042;-57
2020/12/05 11:48:40;;;;;;;11.77;7.53;;;;;;;;;;5088539;28;20048;-55
2020/12/05 11:51:05;;;;;;;12.77;8.70;;;;;;;;;;5090684;28;20435;-55
2020/12/05 11:53:31;;;;;;;13.95;8.55;;;;;;;;;;5091195;28;20050;-55
2020/12/05 11:55:56;;;;;;;11.88;8.27;;;;;;;;;;5090785;28;20024;-55
2020/12/05 11:58:22;;;;;;;12.10;8.40;;;;;;;;;;5086732;28;20514;-56
2020/12/05 12:00:48;;;;;;;13.38;8.15;;;;;;;;;;5091958;28;20103;-56
2020/12/05 12:03:13;;;;;;;14.00;9.77;;;;;;;;;;5090184;28;20095;-55
2020/12/05 12:05:38;;;;;;;15.02;9.55;;;;;;;;;;5089037;28;20107;-54
2020/12/05 12:08:03;;;;;;;13.40;8.98;;;;;;;;;;5088644;28;20027;-56
2020/12/05 12:10:29;;;;;;;14.60;9.30;;;;;;;;;;5089340;28;20027;-55
2020/12/05 12:12:55;;;;;;;14.20;8.63;;;;;;;;;;5091644;28;20019;-53
2020/12/05 12:15:23;;;;;;;11.70;8.25;;;;;;;;;;5090572;28;20106;-53
2020/12/05 12:17:53;;;;;;;11.23;7.07;;;;;;;;;;5091688;28;20020;-56
2020/12/05 12:20:18;;;;;;;12.98;8.48;;;;;;;;;;5089513;28;20016;-57
2020/12/05 12:22:44;;;;;;;13.60;9.07;;;;;;;;;;5091388;28;20054;-57
2020/12/05 12:25:09;;;;;;;13.50;9.15;;;;;;;;;;5090785;28;20024;-57
2020/12/05 12:27:36;;;;;;;13.05;9.38;;;;;;;;;;5089469;28;20031;-55
2020/12/05 12:30:01;;;;;;;6.38;3.85;;;;;;;;;;5088851;28;20024;-56
2020/12/05 12:32:26;;;;;;;15.32;9.65;;;;;;;;;;5089266;28;20020;-54
2020/12/05 12:34:52;;;;;;;16.27;9.82;;;;;;;;;;5091850;28;20024;-58
2020/12/05 12:37:20;;;;;;;16.13;9.57;;;;;;;;;;5076622;28;20024;-57
2020/12/05 12:39:45;;;;;;;14.13;10.13;;;;;;;;;;5088571;28;20102;-58
2020/12/05 12:42:10;;;;;;;14.93;10.27;;;;;;;;;;5091932;28;20037;-57
2020/12/05 12:44:36;;;;;;;16.33;9.70;;;;;;;;;;5095431;28;20458;-58
2020/12/05 12:49:36;;;;;;;13.68;9.65;;;;;;;;;;5092276;28;20094;-55
2020/12/05 12:52:04;;;;;;;14.02;9.80;;;;;;;;;;5082856;28;20450;-57
2020/12/05 12:54:29;;;;;;;13.00;9.07;;;;;;;;;;5091734;28;20055;-57
2020/12/05 12:56:54;;;;;;;12.77;8.88;;;;;;;;;;5094120;28;20048;-57
2020/12/05 12:59:20;;;;;;;12.18;8.40;;;;;;;;;;5092490;28;20020;-58
2020/12/05 13:01:45;;;;;;;16.75;9.40;;;;;;;;;;5095193;28;20024;-57
2020/12/05 13:04:10;;;;;;;14.55;10.00;;;;;;;;;;5095435;28;20526;-58
2020/12/05 13:06:36;;;;;;;14.80;9.48;;;;;;;;;;5092054;28;20020;-57
2020/12/05 13:09:02;;;;;;;15.98;9.60;;;;;;;;;;5089701;28;20020;-55
2020/12/05 13:11:27;;;;;;;14.23;9.80;;;;;;;;;;5095180;28;20095;-58
2020/12/05 13:13:52;;;;;;;14.00;9.13;;;;;;;;;;5094471;28;20099;-57
2020/12/05 13:16:18;;;;;;;13.25;9.43;;;;;;;;;;5089133;28;20016;-56
2020/12/05 13:18:43;;;;;;;14.70;10.00;;;;;;;;;;5090741;28;20020;-53
2020/12/05 13:21:09;;;;;;;14.15;9.40;;;;;;;;;;5085917;28;20086;-57
2020/12/05 13:23:34;;;;;;;13.15;8.98;;;;;;;;;;5094403;28;20051;-57
2020/12/05 13:25:59;;;;;;;13.15;9.07;;;;;;;;;;5093485;28;20493;-53
2020/12/05 13:28:24;;;;;;;12.88;8.48;;;;;;;;;;5090193;28;20558;-57
2020/12/05 13:30:50;;;;;;;14.80;8.65;;;;;;;;;;5094647;28;20166;-56
2020/12/05 13:33:15;;;;;;;14.45;9.00;;;;;;;;;;5093293;28;20440;-55
2020/12/05 13:35:40;;;;;;;14.02;8.80;;;;;;;;;;5094553;28;20105;-57
2020/12/05 13:38:06;;;;;;;13.88;8.77;;;;;;;;;;5092488;28;20035;-55
2020/12/05 13:40:32;;;;;;;15.95;9.82;;;;;;;;;;5093279;28;20032;-55
2020/12/05 13:42:57;;;;;;;15.57;9.38;;;;;;;;;;5091690;28;20032;-57
2020/12/05 13:45:23;;;;;;;12.23;8.65;;;;;;;;;;5078233;28;20463;-54
2020/12/05 13:47:48;;;;;;;14.02;9.20;;;;;;;;;;5086933;28;20444;-56
2020/12/05 13:50:13;;;;;;;13.73;8.90;;;;;;;;;;5083289;28;20027;-56
2020/12/05 13:52:38;;;;;;;12.32;8.65;;;;;;;;;;5090218;28;20029;-59
2020/12/05 13:55:04;;;;;;;13.05;8.38;;;;;;;;;;5088230;28;20020;-56
2020/12/05 13:57:29;;;;;;;12.63;8.98;;;;;;;;;;5086678;28;20028;-56
2020/12/05 13:59:54;;;;;;;11.57;8.80;;;;;;;;;;5090550;28;20115;-56
2020/12/05 14:02:20;;;;;;;14.18;9.02;;;;;;;;;;5090719;28;20045;-58
2020/12/05 14:04:45;;;;;;;14.15;8.80;;;;;;;;;;5093459;28;20028;-56
2020/12/05 14:07:10;;;;;;;14.80;8.88;;;;;;;;;;5093112;28;20474;-57
2020/12/05 14:09:35;;;;;;;12.20;7.75;;;;;;;;;;5091070;28;20361;-56
2020/12/05 14:12:01;;;;;;;13.57;8.10;;;;;;;;;;5094453;28;20019;-56
2020/12/05 14:14:26;;;;;;;13.07;8.88;;;;;;;;;;5087475;28;20020;-58
2020/12/05 14:16:52;;;;;;;11.82;8.02;;;;;;;;;;5089621;28;20016;-56
2020/12/05 14:19:17;;;;;;;13.77;9.05;;;;;;;;;;5089121;28;20024;-58
2020/12/05 14:21:42;;;;;;;13.57;8.80;;;;;;;;;;5093410;28;20020;-57